createdAt,value
2022-11-18T00:04:26.479Z,98677.38
2022-11-18T00:09:57.475Z,98695.31
2022-11-18T00:15:21.785Z,98698.59
2022-11-18T00:21:02.853Z,98706.22
2022-11-18T00:26:30.684Z,98687.22
2022-11-18T00:32:12.629Z,98682.84
2022-11-18T00:37:37.144Z,98692.44
2022-11-18T00:43:19.399Z,98678.91
2022-11-18T00:48:46.396Z,98704.75
2022-11-18T00:54:11.418Z,98710.06
2022-11-18T00:59:43.509Z,98706.38
2022-11-18T01:05:18.392Z,98709.94
2022-11-18T01:10:42.340Z,98712.97
2022-11-18T01:16:11.162Z,98708.16
2022-11-18T01:21:42.217Z,98712.25
2022-11-18T01:27:22.238Z,98700.34
2022-11-18T01:32:47.218Z,98707.22
2022-11-18T01:38:20.124Z,98702.69
2022-11-18T01:43:58.753Z,98693.56
2022-11-18T01:49:37.926Z,98700.41
2022-11-18T01:55:10.619Z,98691.13
2022-11-18T02:00:41.741Z,98690.72
2022-11-18T02:06:24.292Z,98697.25
2022-11-18T02:11:56.555Z,98701.22
2022-11-18T02:17:35.003Z,98699.72
2022-11-18T02:23:31.767Z,98698.72
2022-11-18T02:29:14.660Z,98703.16
2022-11-18T02:34:46.107Z,98705.16
2022-11-18T02:40:20.531Z,98705.94
2022-11-18T02:45:55.532Z,98714.97
2022-11-18T02:51:24.996Z,98707.66
2022-11-18T02:56:50.550Z,98705.34
2022-11-18T03:02:22.850Z,98721.25
2022-11-18T03:07:54.079Z,98717.03
2022-11-18T03:13:32.510Z,98721.28
2022-11-18T03:19:12.854Z,98722.25
2022-11-18T03:24:56.849Z,98742.19
2022-11-18T03:30:23.101Z,98746.66
2022-11-18T03:35:56.632Z,98753.78
2022-11-18T03:41:27.375Z,98768.13
2022-11-18T03:46:56.333Z,98769.38
2022-11-18T03:52:57.517Z,98775.81
2022-11-18T03:58:30.138Z,98787.28
2022-11-18T04:03:58.207Z,98789.59
2022-11-18T04:09:32.668Z,98800.16
2022-11-18T04:15:00.973Z,98791.69
2022-11-18T04:20:28.571Z,98799.59
2022-11-18T04:25:57.518Z,98792.78
2022-11-18T04:31:43.541Z,98800.44
2022-11-18T04:37:17.402Z,98803.56
2022-11-18T04:42:45.765Z,98804.13
2022-11-18T04:48:19.605Z,98814.78
2022-11-18T04:53:52.185Z,98810.13
2022-11-18T04:59:23.381Z,98810.66
2022-11-18T05:04:47.531Z,98823.06
2022-11-18T05:10:22.200Z,98840.63
2022-11-18T05:15:54.738Z,98836.00
2022-11-18T05:21:31.834Z,98846.66
2022-11-18T05:27:26.000Z,98836.00
2022-11-18T05:38:47.466Z,98861.25
2022-11-18T05:44:21.429Z,98865.38
2022-11-18T05:49:46.362Z,98877.06
2022-11-18T05:55:14.355Z,98865.81
2022-11-18T06:00:46.591Z,98882.72
2022-11-18T06:06:16.784Z,98892.66
2022-11-18T06:11:52.313Z,98902.34
2022-11-18T06:17:30.542Z,98902.53
2022-11-18T06:23:03.140Z,98911.50
2022-11-18T06:28:31.365Z,98923.88
2022-11-18T06:34:04.536Z,98926.16
2022-11-18T06:39:37.959Z,98929.69
2022-11-18T06:45:05.734Z,98941.44
2022-11-18T06:50:38.645Z,98943.00
2022-11-18T06:56:21.433Z,98954.88
2022-11-18T07:01:50.629Z,98970.25
2022-11-18T07:07:14.522Z,98965.75
2022-11-18T07:12:44.858Z,98965.19
2022-11-18T07:18:14.426Z,99011.63
2022-11-18T07:23:58.779Z,98987.03
2022-11-18T07:29:25.000Z,98993.16
2022-11-18T07:34:50.128Z,98994.00
2022-11-18T07:40:17.804Z,99001.78
2022-11-18T07:45:45.306Z,99007.66
2022-11-18T07:51:11.543Z,99016.22
2022-11-18T07:56:35.146Z,99024.88
2022-11-18T08:02:05.680Z,99030.88
2022-11-18T08:07:34.219Z,99033.25
2022-11-18T08:13:04.209Z,99041.00
2022-11-18T08:18:32.141Z,99038.09
2022-11-18T08:24:18.619Z,99057.31
2022-11-18T08:29:44.869Z,99056.19
2022-11-18T08:35:21.906Z,99064.16
2022-11-18T08:40:55.999Z,99079.56
2022-11-18T08:46:33.308Z,99083.09
2022-11-18T08:52:02.926Z,99090.78
2022-11-18T08:57:33.385Z,99092.31
2022-11-18T09:03:11.209Z,99098.06
2022-11-18T09:08:38.021Z,99099.59
2022-11-18T09:19:51.211Z,99102.66
2022-11-18T09:25:31.977Z,99117.00
2022-11-18T09:31:14.590Z,99127.22
2022-11-18T09:36:41.958Z,99145.50
2022-11-18T09:42:29.713Z,99158.91
2022-11-18T09:48:10.657Z,99156.28
2022-11-18T09:53:37.772Z,99164.25
2022-11-18T09:59:23.483Z,99163.56
2022-11-18T10:05:12.846Z,99175.06
2022-11-18T10:11:05.244Z,99176.66
2022-11-18T10:16:47.478Z,99189.31
2022-11-18T10:22:30.856Z,99200.50
2022-11-18T10:27:56.344Z,99204.91
2022-11-18T10:34:08.110Z,99200.91
2022-11-18T10:39:51.091Z,99224.47
2022-11-18T10:45:25.343Z,99230.78
2022-11-18T10:50:59.905Z,99246.81
2022-11-18T10:57:02.110Z,99242.19
2022-11-18T11:02:44.972Z,99254.56
2022-11-18T11:08:37.017Z,99260.84
2022-11-18T11:14:41.224Z,99270.91
2022-11-18T11:20:27.882Z,99275.94
2022-11-18T11:32:02.742Z,99275.44
2022-11-18T11:37:41.904Z,99280.19
2022-11-18T11:43:37.978Z,99285.28
2022-11-18T11:49:24.087Z,99285.81
2022-11-18T11:55:12.239Z,99286.81
2022-11-18T12:00:52.124Z,99294.72
2022-11-18T12:06:33.821Z,99303.00
2022-11-18T12:12:21.921Z,99316.34
2022-11-18T12:17:59.215Z,99307.50
2022-11-18T12:23:32.182Z,99311.28
2022-11-18T12:29:19.203Z,99311.91
2022-11-18T12:35:03.078Z,99321.53
2022-11-18T12:40:51.784Z,99334.66
2022-11-18T12:46:49.007Z,99335.03
2022-11-18T12:52:56.939Z,99337.44
2022-11-18T12:59:11.438Z,99353.44
2022-11-18T13:04:47.588Z,99354.06
2022-11-18T13:10:33.920Z,99365.91
2022-11-18T13:16:19.697Z,99369.41
2022-11-18T13:27:49.207Z,99380.25
2022-11-18T13:33:35.854Z,99379.72
2022-11-18T13:39:10.219Z,99391.69
2022-11-18T13:44:46.062Z,99403.22
2022-11-18T13:50:26.310Z,99412.09
2022-11-18T13:55:57.174Z,99414.25
2022-11-18T14:01:30.335Z,99424.97
2022-11-18T14:07:25.674Z,99425.25
2022-11-18T14:13:06.302Z,99441.50
2022-11-18T14:18:39.570Z,99449.66
2022-11-18T14:24:32.006Z,99454.81
2022-11-18T14:30:01.556Z,99471.56
2022-11-18T14:35:50.814Z,99472.03
2022-11-18T14:42:17.631Z,99484.00
2022-11-18T14:47:50.091Z,99491.47
2022-11-18T14:53:19.000Z,99490.63
2022-11-18T14:58:53.340Z,99492.00
2022-11-18T15:04:35.664Z,99498.59
2022-11-18T15:10:12.130Z,99511.50
2022-11-18T15:15:47.142Z,99510.03
2022-11-18T15:21:14.001Z,99518.97
2022-11-18T15:32:44.022Z,99529.84
2022-11-18T15:38:24.158Z,99545.47
2022-11-18T15:43:50.465Z,99549.06
2022-11-18T15:49:24.208Z,99561.09
2022-11-18T15:54:50.381Z,99558.16
2022-11-18T16:00:18.968Z,99568.84
2022-11-18T16:05:58.963Z,99574.06
2022-11-18T16:11:45.691Z,99580.13
2022-11-18T16:17:08.907Z,99579.88
2022-11-18T16:22:38.276Z,99585.75
2022-11-18T16:33:48.877Z,99598.47
2022-11-18T16:39:53.730Z,99613.81
2022-11-18T16:45:22.695Z,99613.47
2022-11-18T16:51:36.825Z,99623.88
2022-11-18T16:57:06.703Z,99622.41
2022-11-18T17:02:39.558Z,99632.97
2022-11-18T17:08:12.877Z,99647.13
2022-11-18T17:13:40.731Z,99652.47
2022-11-18T17:19:12.060Z,99661.06
2022-11-18T17:24:38.457Z,99663.72
2022-11-18T17:30:05.662Z,99665.63
2022-11-18T17:35:34.117Z,99681.69
2022-11-18T17:41:06.367Z,99678.06
2022-11-18T17:46:53.937Z,99688.50
2022-11-18T17:52:29.067Z,99697.41
2022-11-18T17:57:59.394Z,99700.16
2022-11-18T18:03:27.763Z,99706.75
2022-11-18T18:09:00.550Z,99714.00
2022-11-18T18:14:27.989Z,99744.69
2022-11-18T18:19:59.565Z,99734.91
2022-11-18T18:31:12.810Z,99751.13
2022-11-18T18:36:45.312Z,99753.59
2022-11-18T18:42:08.470Z,99759.59
2022-11-18T18:47:36.653Z,99749.34
2022-11-18T18:53:09.724Z,99761.13
2022-11-18T18:58:46.843Z,99755.44
2022-11-18T19:04:19.986Z,99763.31
2022-11-18T19:09:58.712Z,99777.91
2022-11-18T19:15:36.419Z,99779.75
2022-11-18T19:21:16.618Z,99782.50
2022-11-18T19:26:54.344Z,99800.53
2022-11-18T19:32:21.372Z,99813.91
2022-11-18T19:38:00.669Z,99808.91
2022-11-18T19:43:34.664Z,99808.06
2022-11-18T19:49:02.930Z,99800.69
2022-11-18T19:54:33.416Z,99808.88
2022-11-18T20:00:36.102Z,99811.38
2022-11-18T20:06:06.087Z,99821.19
2022-11-18T20:11:34.869Z,99835.59
2022-11-18T20:17:09.502Z,99826.53
2022-11-18T20:22:58.746Z,99833.41
2022-11-18T20:28:47.363Z,99841.00
2022-11-18T20:34:17.242Z,99846.22
2022-11-18T20:40:02.229Z,99850.44
2022-11-18T20:45:31.675Z,99849.22
2022-11-18T20:51:09.881Z,99838.94
2022-11-18T20:56:41.378Z,99853.31
2022-11-18T21:02:16.278Z,99860.13
2022-11-18T21:07:51.523Z,99857.53
2022-11-18T21:13:36.758Z,99855.25
2022-11-18T21:19:03.444Z,99868.97
2022-11-18T21:24:36.969Z,99868.97
2022-11-18T21:30:22.168Z,99868.81
2022-11-18T21:35:49.400Z,99862.84
2022-11-18T21:47:13.848Z,99878.13
2022-11-18T21:52:45.821Z,99887.34
2022-11-18T21:58:18.562Z,99885.75
2022-11-18T22:03:55.213Z,99900.38
2022-11-18T22:09:19.064Z,99901.13
2022-11-18T22:15:02.824Z,99908.00
2022-11-18T22:20:32.317Z,99910.44
2022-11-18T22:32:05.391Z,99911.06
2022-11-18T22:38:01.933Z,99915.84
2022-11-18T22:43:37.508Z,99921.38
2022-11-18T22:49:03.767Z,99936.72
2022-11-18T22:54:40.177Z,99943.00
2022-11-18T23:00:21.526Z,99947.16
2022-11-18T23:05:51.359Z,99956.69
2022-11-18T23:11:40.438Z,99962.91
2022-11-18T23:17:10.171Z,99965.03
2022-11-18T23:22:37.485Z,99981.72
2022-11-18T23:28:18.766Z,99986.34
2022-11-18T23:33:44.108Z,99993.56
2022-11-18T23:39:22.784Z,99983.56
2022-11-18T23:44:48.864Z,99981.28
2022-11-18T23:50:24.242Z,99989.38
2022-11-18T23:55:48.185Z,99996.66
